PRG weather

Václav Havel Airport Prague
Prague, Prague (capital city), Czechia

Public forecast

Using degrees Celsius for public forecast. Weather courtesy of forecast.io.

METAR (pilot weather report)

Retrieved 2017/05/25 00:30 UTC (28 minutes ago):

LKPR 250030Z 29005KT CAVOK 10/07 Q1021 NOSIG

TAF (pilot weather forecast)

Forecast is more than 12 hours old.

Retrieved 2017/05/23 12:18 UTC (2 days ago):

TAF LKPR 231100Z 2312/2418 30004KT 9999 SCT040 TEMPO 2315/2404 32016G26KT 8000 SHRA SCT030TCU PROB30 TEMPO 2320/2402 4000 TSRA SCT023CB